sensor_id;sensor_type;location;lat;lon;timestamp;pressure;altitude;pressure_sealevel;temperature;humidity
54936;BME280;40838;50.676;7.838;2023-02-21T00:01:05;98751.56;;;6.22;100.00
54936;BME280;40838;50.676;7.838;2023-02-21T00:03:51;98751.13;;;6.14;100.00
54936;BME280;40838;50.676;7.838;2023-02-21T00:06:35;98748.94;;;5.82;100.00
54936;BME280;40838;50.676;7.838;2023-02-21T00:09:19;98752.03;;;5.50;100.00
54936;BME280;40838;50.676;7.838;2023-02-21T00:12:04;98751.84;;;5.69;100.00
54936;BME280;40838;50.676;7.838;2023-02-21T00:14:50;98749.50;;;5.96;100.00
54936;BME280;40838;50.676;7.838;2023-02-21T00:17:34;98738.50;;;5.75;100.00
54936;BME280;40838;50.676;7.838;2023-02-21T00:20:22;98746.84;;;5.96;100.00
54936;BME280;40838;50.676;7.838;2023-02-21T00:23:07;98739.78;;;6.30;100.00
54936;BME280;40838;50.676;7.838;2023-02-21T00:25:51;98743.97;;;6.60;100.00
54936;BME280;40838;50.676;7.838;2023-02-21T00:28:35;98743.03;;;6.49;100.00
54936;BME280;40838;50.676;7.838;2023-02-21T00:31:19;98742.06;;;6.55;100.00
54936;BME280;40838;50.676;7.838;2023-02-21T00:34:03;98741.34;;;6.60;100.00
54936;BME280;40838;50.676;7.838;2023-02-21T00:36:48;98742.38;;;6.59;100.00
54936;BME280;40838;50.676;7.838;2023-02-21T00:39:33;98739.81;;;6.47;100.00
54936;BME280;40838;50.676;7.838;2023-02-21T00:42:17;98739.41;;;6.38;100.00
54936;BME280;40838;50.676;7.838;2023-02-21T00:45:02;98737.88;;;6.25;100.00
54936;BME280;40838;50.676;7.838;2023-02-21T00:47:47;98736.59;;;6.45;100.00
54936;BME280;40838;50.676;7.838;2023-02-21T00:50:31;98740.19;;;6.39;100.00
54936;BME280;40838;50.676;7.838;2023-02-21T00:53:17;98730.25;;;6.46;100.00
54936;BME280;40838;50.676;7.838;2023-02-21T00:56:01;98739.16;;;6.23;100.00
54936;BME280;40838;50.676;7.838;2023-02-21T00:58:46;98741.22;;;6.21;100.00
54936;BME280;40838;50.676;7.838;2023-02-21T01:01:30;98739.09;;;6.35;100.00
54936;BME280;40838;50.676;7.838;2023-02-21T01:04:16;98735.44;;;6.24;100.00
54936;BME280;40838;50.676;7.838;2023-02-21T01:07:02;98725.66;;;6.24;100.00
54936;BME280;40838;50.676;7.838;2023-02-21T01:09:48;98734.03;;;5.88;100.00
54936;BME280;40838;50.676;7.838;2023-02-21T01:12:32;98735.16;;;6.37;100.00
54936;BME280;40838;50.676;7.838;2023-02-21T01:15:17;98735.88;;;6.33;100.00
54936;BME280;40838;50.676;7.838;2023-02-21T01:18:01;98740.25;;;6.27;100.00
54936;BME280;40838;50.676;7.838;2023-02-21T01:20:47;98736.91;;;6.32;100.00
54936;BME280;40838;50.676;7.838;2023-02-21T01:23:33;98730.88;;;6.19;100.00
54936;BME280;40838;50.676;7.838;2023-02-21T01:26:18;98734.00;;;6.33;100.00
54936;BME280;40838;50.676;7.838;2023-02-21T01:29:03;98739.56;;;6.48;100.00
54936;BME280;40838;50.676;7.838;2023-02-21T01:31:48;98738.28;;;6.51;100.00
54936;BME280;40838;50.676;7.838;2023-02-21T01:34:38;98737.78;;;6.20;100.00
54936;BME280;40838;50.676;7.838;2023-02-21T01:37:22;98732.91;;;6.29;100.00
54936;BME280;40838;50.676;7.838;2023-02-21T01:40:08;98735.78;;;6.44;100.00
54936;BME280;40838;50.676;7.838;2023-02-21T01:42:58;98737.16;;;6.01;100.00
54936;BME280;40838;50.676;7.838;2023-02-21T01:45:48;98731.91;;;6.18;100.00
54936;BME280;40838;50.676;7.838;2023-02-21T01:48:34;98723.03;;;6.24;100.00
54936;BME280;40838;50.676;7.838;2023-02-21T01:51:27;98724.22;;;6.34;100.00
54936;BME280;40838;50.676;7.838;2023-02-21T01:54:14;98717.50;;;6.26;100.00
54936;BME280;40838;50.676;7.838;2023-02-21T01:57:01;98723.00;;;6.08;100.00
54936;BME280;40838;50.676;7.838;2023-02-21T01:59:48;98730.00;;;5.85;100.00
54936;BME280;40838;50.676;7.838;2023-02-21T02:02:58;98714.84;;;6.09;100.00
54936;BME280;40838;50.676;7.838;2023-02-21T02:05:45;98721.91;;;5.51;100.00
54936;BME280;40838;50.676;7.838;2023-02-21T02:08:32;98715.31;;;5.13;100.00
54936;BME280;40838;50.676;7.838;2023-02-21T02:11:19;98708.84;;;5.85;100.00
54936;BME280;40838;50.676;7.838;2023-02-21T02:14:18;98709.88;;;5.44;100.00
54936;BME280;40838;50.676;7.838;2023-02-21T02:16:56;98710.66;;;5.56;100.00
54936;BME280;40838;50.676;7.838;2023-02-21T02:22:45;98693.53;;;5.87;100.00
54936;BME280;40838;50.676;7.838;2023-02-21T02:25:39;98705.31;;;6.08;100.00
54936;BME280;40838;50.676;7.838;2023-02-21T02:28:30;98697.44;;;5.85;100.00
54936;BME280;40838;50.676;7.838;2023-02-21T02:31:20;98710.25;;;5.76;100.00
54936;BME280;40838;50.676;7.838;2023-02-21T02:37:09;98698.63;;;5.77;100.00
54936;BME280;40838;50.676;7.838;2023-02-21T02:39:42;98706.16;;;5.97;100.00
54936;BME280;40838;50.676;7.838;2023-02-21T02:42:20;98689.41;;;5.51;100.00
54936;BME280;40838;50.676;7.838;2023-02-21T02:44:56;98696.69;;;6.01;100.00
54936;BME280;40838;50.676;7.838;2023-02-21T02:47:28;98684.94;;;6.09;100.00
54936;BME280;40838;50.676;7.838;2023-02-21T02:49:58;98690.72;;;6.06;100.00
54936;BME280;40838;50.676;7.838;2023-02-21T02:52:27;98682.09;;;5.98;100.00
54936;BME280;40838;50.676;7.838;2023-02-21T02:55:01;98687.81;;;6.07;100.00
54936;BME280;40838;50.676;7.838;2023-02-21T02:57:31;98680.72;;;5.96;100.00
54936;BME280;40838;50.676;7.838;2023-02-21T03:00:07;98688.69;;;5.84;100.00
54936;BME280;40838;50.676;7.838;2023-02-21T03:02:44;98687.44;;;5.87;100.00
54936;BME280;40838;50.676;7.838;2023-02-21T03:05:30;98686.69;;;5.34;100.00
54936;BME280;40838;50.676;7.838;2023-02-21T03:08:02;98682.69;;;5.20;100.00
54936;BME280;40838;50.676;7.838;2023-02-21T03:10:43;98686.72;;;5.63;100.00
54936;BME280;40838;50.676;7.838;2023-02-21T03:13:17;98676.25;;;5.68;100.00
54936;BME280;40838;50.676;7.838;2023-02-21T03:15:52;98688.09;;;5.65;100.00
54936;BME280;40838;50.676;7.838;2023-02-21T03:18:26;98683.13;;;5.69;100.00
54936;BME280;40838;50.676;7.838;2023-02-21T03:20:57;98683.38;;;5.27;100.00
54936;BME280;40838;50.676;7.838;2023-02-21T03:23:30;98677.56;;;5.13;100.00
54936;BME280;40838;50.676;7.838;2023-02-21T03:26:02;98685.06;;;5.45;100.00
54936;BME280;40838;50.676;7.838;2023-02-21T03:28:31;98685.16;;;5.78;100.00
54936;BME280;40838;50.676;7.838;2023-02-21T03:30:59;98689.72;;;5.95;100.00
54936;BME280;40838;50.676;7.838;2023-02-21T03:33:30;98686.03;;;5.96;100.00
54936;BME280;40838;50.676;7.838;2023-02-21T03:35:59;98685.69;;;5.92;100.00
54936;BME280;40838;50.676;7.838;2023-02-21T03:38:28;98681.72;;;6.07;100.00
54936;BME280;40838;50.676;7.838;2023-02-21T03:40:56;98680.44;;;6.09;100.00
54936;BME280;40838;50.676;7.838;2023-02-21T03:43:23;98681.50;;;5.79;100.00
54936;BME280;40838;50.676;7.838;2023-02-21T03:45:56;98687.03;;;5.66;100.00
54936;BME280;40838;50.676;7.838;2023-02-21T03:48:26;98679.28;;;5.88;100.00
54936;BME280;40838;50.676;7.838;2023-02-21T03:50:53;98677.97;;;6.02;100.00
54936;BME280;40838;50.676;7.838;2023-02-21T03:53:24;98686.59;;;5.98;100.00
54936;BME280;40838;50.676;7.838;2023-02-21T03:55:53;98679.41;;;6.10;100.00
54936;BME280;40838;50.676;7.838;2023-02-21T03:58:27;98679.81;;;6.19;100.00
54936;BME280;40838;50.676;7.838;2023-02-21T04:00:54;98676.13;;;6.20;100.00
54936;BME280;40838;50.676;7.838;2023-02-21T04:03:36;98671.97;;;6.24;100.00
54936;BME280;40838;50.676;7.838;2023-02-21T04:06:04;98684.13;;;6.25;100.00
54936;BME280;40838;50.676;7.838;2023-02-21T04:08:31;98676.81;;;5.98;100.00
54936;BME280;40838;50.676;7.838;2023-02-21T04:11:00;98676.41;;;5.90;100.00
54936;BME280;40838;50.676;7.838;2023-02-21T04:13:31;98672.81;;;5.84;100.00
54936;BME280;40838;50.676;7.838;2023-02-21T04:15:59;98671.50;;;5.70;100.00
54936;BME280;40838;50.676;7.838;2023-02-21T04:18:27;98674.09;;;6.10;100.00
54936;BME280;40838;50.676;7.838;2023-02-21T04:20:57;98670.97;;;5.96;100.00
54936;BME280;40838;50.676;7.838;2023-02-21T04:23:24;98664.25;;;6.06;100.00
54936;BME280;40838;50.676;7.838;2023-02-21T04:25:51;98675.47;;;6.13;100.00
54936;BME280;40838;50.676;7.838;2023-02-21T04:28:27;98666.34;;;6.03;100.00
54936;BME280;40838;50.676;7.838;2023-02-21T04:30:54;98675.16;;;6.09;100.00
54936;BME280;40838;50.676;7.838;2023-02-21T04:33:21;98670.16;;;5.39;100.00
54936;BME280;40838;50.676;7.838;2023-02-21T04:35:49;98674.47;;;5.85;100.00
54936;BME280;40838;50.676;7.838;2023-02-21T04:38:31;98671.34;;;5.19;100.00
54936;BME280;40838;50.676;7.838;2023-02-21T04:40:57;98683.66;;;5.54;100.00
54936;BME280;40838;50.676;7.838;2023-02-21T04:43:26;98673.38;;;5.98;100.00
54936;BME280;40838;50.676;7.838;2023-02-21T04:45:54;98678.84;;;6.08;100.00
54936;BME280;40838;50.676;7.838;2023-02-21T04:48:23;98680.19;;;5.13;100.00
54936;BME280;40838;50.676;7.838;2023-02-21T04:50:50;98676.16;;;5.10;100.00
54936;BME280;40838;50.676;7.838;2023-02-21T04:53:17;98674.19;;;5.29;100.00
54936;BME280;40838;50.676;7.838;2023-02-21T04:55:44;98678.56;;;5.24;100.00
54936;BME280;40838;50.676;7.838;2023-02-21T04:58:12;98679.00;;;5.73;100.00
54936;BME280;40838;50.676;7.838;2023-02-21T05:00:41;98681.28;;;5.69;100.00
54936;BME280;40838;50.676;7.838;2023-02-21T05:03:09;98678.13;;;5.84;100.00
54936;BME280;40838;50.676;7.838;2023-02-21T05:05:36;98677.38;;;6.00;100.00
54936;BME280;40838;50.676;7.838;2023-02-21T05:08:03;98676.06;;;5.86;100.00
54936;BME280;40838;50.676;7.838;2023-02-21T05:10:30;98669.38;;;5.84;100.00
54936;BME280;40838;50.676;7.838;2023-02-21T05:12:57;98675.03;;;5.58;100.00
54936;BME280;40838;50.676;7.838;2023-02-21T05:15:26;98674.69;;;5.15;100.00
54936;BME280;40838;50.676;7.838;2023-02-21T05:17:52;98669.97;;;5.57;100.00
54936;BME280;40838;50.676;7.838;2023-02-21T05:20:23;98671.38;;;5.76;100.00
54936;BME280;40838;50.676;7.838;2023-02-21T05:22:52;98676.47;;;5.66;100.00
54936;BME280;40838;50.676;7.838;2023-02-21T05:25:20;98672.81;;;6.13;100.00
54936;BME280;40838;50.676;7.838;2023-02-21T05:27:51;98669.69;;;6.16;100.00
54936;BME280;40838;50.676;7.838;2023-02-21T05:32:57;98664.47;;;5.06;100.00
54936;BME280;40838;50.676;7.838;2023-02-21T05:35:25;98663.69;;;5.06;100.00
54936;BME280;40838;50.676;7.838;2023-02-21T05:37:52;98666.47;;;5.40;100.00
54936;BME280;40838;50.676;7.838;2023-02-21T05:40:19;98663.78;;;5.51;100.00
54936;BME280;40838;50.676;7.838;2023-02-21T05:42:47;98661.19;;;5.68;100.00
54936;BME280;40838;50.676;7.838;2023-02-21T05:45:14;98664.16;;;6.00;100.00
54936;BME280;40838;50.676;7.838;2023-02-21T05:47:41;98662.75;;;5.12;100.00
54936;BME280;40838;50.676;7.838;2023-02-21T05:50:08;98668.53;;;4.38;100.00
54936;BME280;40838;50.676;7.838;2023-02-21T05:52:38;98663.47;;;4.37;100.00
54936;BME280;40838;50.676;7.838;2023-02-21T05:55:05;98662.88;;;4.82;100.00
54936;BME280;40838;50.676;7.838;2023-02-21T05:57:37;98667.38;;;5.45;100.00
54936;BME280;40838;50.676;7.838;2023-02-21T06:00:12;98667.38;;;5.74;100.00
54936;BME280;40838;50.676;7.838;2023-02-21T06:02:39;98661.69;;;5.13;100.00
54936;BME280;40838;50.676;7.838;2023-02-21T06:05:06;98652.63;;;5.49;100.00
54936;BME280;40838;50.676;7.838;2023-02-21T06:07:33;98668.06;;;4.77;100.00
54936;BME280;40838;50.676;7.838;2023-02-21T06:10:01;98661.91;;;5.35;100.00
54936;BME280;40838;50.676;7.838;2023-02-21T06:12:29;98671.44;;;5.93;100.00
54936;BME280;40838;50.676;7.838;2023-02-21T06:14:55;98673.56;;;5.79;100.00
54936;BME280;40838;50.676;7.838;2023-02-21T06:17:24;98668.91;;;6.15;100.00
54936;BME280;40838;50.676;7.838;2023-02-21T06:19:51;98663.06;;;6.30;100.00
54936;BME280;40838;50.676;7.838;2023-02-21T06:22:23;98661.28;;;5.73;100.00
54936;BME280;40838;50.676;7.838;2023-02-21T06:24:50;98655.94;;;5.56;100.00
54936;BME280;40838;50.676;7.838;2023-02-21T06:27:18;98657.59;;;6.03;100.00
54936;BME280;40838;50.676;7.838;2023-02-21T06:29:45;98651.81;;;5.89;100.00
54936;BME280;40838;50.676;7.838;2023-02-21T06:32:12;98651.84;;;6.23;100.00
54936;BME280;40838;50.676;7.838;2023-02-21T06:34:39;98657.94;;;5.38;100.00
54936;BME280;40838;50.676;7.838;2023-02-21T06:37:06;98657.91;;;6.07;100.00
54936;BME280;40838;50.676;7.838;2023-02-21T06:39:33;98653.91;;;6.21;100.00
54936;BME280;40838;50.676;7.838;2023-02-21T06:42:00;98659.44;;;6.19;100.00
54936;BME280;40838;50.676;7.838;2023-02-21T06:44:28;98656.88;;;6.41;100.00
54936;BME280;40838;50.676;7.838;2023-02-21T06:46:55;98654.47;;;6.40;100.00
54936;BME280;40838;50.676;7.838;2023-02-21T06:49:24;98660.34;;;6.42;100.00
54936;BME280;40838;50.676;7.838;2023-02-21T06:51:55;98652.06;;;5.88;100.00
54936;BME280;40838;50.676;7.838;2023-02-21T06:54:21;98650.78;;;6.24;100.00
54936;BME280;40838;50.676;7.838;2023-02-21T06:56:49;98653.44;;;6.24;100.00
54936;BME280;40838;50.676;7.838;2023-02-21T06:59:16;98650.97;;;6.17;100.00
54936;BME280;40838;50.676;7.838;2023-02-21T07:01:44;98651.75;;;6.01;100.00
54936;BME280;40838;50.676;7.838;2023-02-21T07:04:11;98655.03;;;5.91;100.00
54936;BME280;40838;50.676;7.838;2023-02-21T07:06:40;98654.00;;;5.80;100.00
54936;BME280;40838;50.676;7.838;2023-02-21T07:09:07;98665.31;;;5.76;100.00
54936;BME280;40838;50.676;7.838;2023-02-21T07:11:34;98669.19;;;6.02;100.00
54936;BME280;40838;50.676;7.838;2023-02-21T07:14:03;98660.09;;;6.10;100.00
54936;BME280;40838;50.676;7.838;2023-02-21T07:16:30;98663.94;;;6.19;100.00
54936;BME280;40838;50.676;7.838;2023-02-21T07:19:00;98675.47;;;6.13;100.00
54936;BME280;40838;50.676;7.838;2023-02-21T07:21:27;98669.47;;;6.17;100.00
54936;BME280;40838;50.676;7.838;2023-02-21T07:23:54;98663.63;;;6.32;100.00
54936;BME280;40838;50.676;7.838;2023-02-21T07:26:21;98668.19;;;6.37;100.00
54936;BME280;40838;50.676;7.838;2023-02-21T07:28:48;98665.88;;;6.40;100.00
54936;BME280;40838;50.676;7.838;2023-02-21T07:31:15;98660.56;;;6.07;100.00
54936;BME280;40838;50.676;7.838;2023-02-21T07:33:44;98660.59;;;6.40;100.00
54936;BME280;40838;50.676;7.838;2023-02-21T07:36:12;98662.97;;;6.59;100.00
54936;BME280;40838;50.676;7.838;2023-02-21T07:38:39;98659.53;;;6.58;100.00
54936;BME280;40838;50.676;7.838;2023-02-21T07:41:06;98666.34;;;6.20;100.00
54936;BME280;40838;50.676;7.838;2023-02-21T07:43:33;98662.50;;;6.28;100.00
54936;BME280;40838;50.676;7.838;2023-02-21T07:46:00;98658.88;;;6.34;100.00
54936;BME280;40838;50.676;7.838;2023-02-21T07:48:27;98663.69;;;6.54;100.00
54936;BME280;40838;50.676;7.838;2023-02-21T07:50:53;98660.06;;;6.60;100.00
54936;BME280;40838;50.676;7.838;2023-02-21T07:53:22;98666.50;;;6.64;100.00
54936;BME280;40838;50.676;7.838;2023-02-21T07:55:51;98664.16;;;6.68;100.00
54936;BME280;40838;50.676;7.838;2023-02-21T07:58:18;98657.94;;;7.18;100.00
54936;BME280;40838;50.676;7.838;2023-02-21T08:00:45;98656.16;;;7.24;100.00
54936;BME280;40838;50.676;7.838;2023-02-21T08:03:12;98662.84;;;7.26;100.00
54936;BME280;40838;50.676;7.838;2023-02-21T08:05:40;98666.75;;;7.24;100.00
54936;BME280;40838;50.676;7.838;2023-02-21T08:08:07;98676.59;;;6.00;100.00
54936;BME280;40838;50.676;7.838;2023-02-21T08:10:36;98671.00;;;5.85;100.00
54936;BME280;40838;50.676;7.838;2023-02-21T08:13:02;98677.72;;;5.47;100.00
54936;BME280;40838;50.676;7.838;2023-02-21T08:15:29;98676.53;;;5.83;100.00
54936;BME280;40838;50.676;7.838;2023-02-21T08:17:56;98673.41;;;5.57;100.00
54936;BME280;40838;50.676;7.838;2023-02-21T08:20:23;98671.97;;;5.67;100.00
54936;BME280;40838;50.676;7.838;2023-02-21T08:22:50;98675.84;;;5.88;100.00
54936;BME280;40838;50.676;7.838;2023-02-21T08:25:17;98669.50;;;5.60;100.00
54936;BME280;40838;50.676;7.838;2023-02-21T08:27:45;98674.69;;;6.12;100.00
54936;BME280;40838;50.676;7.838;2023-02-21T08:30:18;98678.00;;;6.75;100.00
54936;BME280;40838;50.676;7.838;2023-02-21T08:32:46;98669.53;;;7.56;100.00
54936;BME280;40838;50.676;7.838;2023-02-21T08:35:34;98679.81;;;8.01;100.00
54936;BME280;40838;50.676;7.838;2023-02-21T08:38:01;98664.66;;;8.29;100.00
54936;BME280;40838;50.676;7.838;2023-02-21T08:40:33;98673.31;;;7.87;100.00
54936;BME280;40838;50.676;7.838;2023-02-21T08:43:01;98667.91;;;8.04;100.00
54936;BME280;40838;50.676;7.838;2023-02-21T08:45:29;98659.22;;;8.14;100.00
54936;BME280;40838;50.676;7.838;2023-02-21T08:47:57;98668.34;;;7.96;100.00
54936;BME280;40838;50.676;7.838;2023-02-21T08:50:26;98670.44;;;7.67;100.00
54936;BME280;40838;50.676;7.838;2023-02-21T08:52:56;98669.94;;;7.97;100.00
54936;BME280;40838;50.676;7.838;2023-02-21T08:55:23;98658.78;;;7.95;100.00
54936;BME280;40838;50.676;7.838;2023-02-21T08:57:53;98662.16;;;7.85;100.00
54936;BME280;40838;50.676;7.838;2023-02-21T09:00:23;98665.78;;;8.06;100.00
54936;BME280;40838;50.676;7.838;2023-02-21T09:02:53;98655.22;;;8.11;100.00
54936;BME280;40838;50.676;7.838;2023-02-21T09:05:22;98656.00;;;7.79;100.00
54936;BME280;40838;50.676;7.838;2023-02-21T09:07:52;98659.47;;;7.31;100.00
54936;BME280;40838;50.676;7.838;2023-02-21T09:10:26;98658.00;;;7.23;100.00
54936;BME280;40838;50.676;7.838;2023-02-21T09:12:53;98657.84;;;6.18;100.00
54936;BME280;40838;50.676;7.838;2023-02-21T09:15:21;98654.81;;;7.43;100.00
54936;BME280;40838;50.676;7.838;2023-02-21T09:17:54;98659.13;;;7.49;100.00
54936;BME280;40838;50.676;7.838;2023-02-21T09:20:23;98657.75;;;8.28;100.00
54936;BME280;40838;50.676;7.838;2023-02-21T09:22:50;98657.72;;;8.55;100.00
54936;BME280;40838;50.676;7.838;2023-02-21T09:25:19;98657.19;;;7.94;100.00
54936;BME280;40838;50.676;7.838;2023-02-21T09:27:47;98657.44;;;7.92;100.00
54936;BME280;40838;50.676;7.838;2023-02-21T09:30:16;98659.72;;;7.56;100.00
54936;BME280;40838;50.676;7.838;2023-02-21T09:32:47;98650.09;;;7.72;100.00
54936;BME280;40838;50.676;7.838;2023-02-21T09:35:15;98654.50;;;8.21;100.00
54936;BME280;40838;50.676;7.838;2023-02-21T09:37:44;98654.84;;;8.67;100.00
54936;BME280;40838;50.676;7.838;2023-02-21T09:40:17;98655.50;;;8.47;100.00
54936;BME280;40838;50.676;7.838;2023-02-21T09:42:52;98655.09;;;8.60;100.00
54936;BME280;40838;50.676;7.838;2023-02-21T09:45:19;98649.53;;;8.67;100.00
54936;BME280;40838;50.676;7.838;2023-02-21T09:47:53;98646.69;;;8.79;100.00
54936;BME280;40838;50.676;7.838;2023-02-21T09:50:24;98646.06;;;8.61;100.00
54936;BME280;40838;50.676;7.838;2023-02-21T09:52:55;98644.78;;;8.69;100.00
54936;BME280;40838;50.676;7.838;2023-02-21T09:55:28;98654.94;;;6.92;100.00
54936;BME280;40838;50.676;7.838;2023-02-21T09:57:55;98643.78;;;7.78;100.00
54936;BME280;40838;50.676;7.838;2023-02-21T10:00:23;98644.88;;;8.84;100.00
54936;BME280;40838;50.676;7.838;2023-02-21T10:02:58;98644.19;;;8.62;100.00
54936;BME280;40838;50.676;7.838;2023-02-21T10:05:41;98634.38;;;9.15;99.45
54936;BME280;40838;50.676;7.838;2023-02-21T10:08:18;98644.31;;;8.40;100.00
54936;BME280;40838;50.676;7.838;2023-02-21T10:10:50;98634.59;;;9.81;95.18
54936;BME280;40838;50.676;7.838;2023-02-21T10:13:32;98630.97;;;9.25;97.02
54936;BME280;40838;50.676;7.838;2023-02-21T10:16:10;98637.94;;;7.76;100.00
54936;BME280;40838;50.676;7.838;2023-02-21T10:18:46;98631.81;;;8.40;100.00
54936;BME280;40838;50.676;7.838;2023-02-21T10:21:19;98636.13;;;8.89;100.00
54936;BME280;40838;50.676;7.838;2023-02-21T10:23:49;98634.66;;;9.18;100.00
54936;BME280;40838;50.676;7.838;2023-02-21T10:26:22;98628.91;;;9.42;100.00
54936;BME280;40838;50.676;7.838;2023-02-21T10:28:51;98622.59;;;9.69;97.89
54936;BME280;40838;50.676;7.838;2023-02-21T10:31:23;98621.78;;;9.73;98.11
54936;BME280;40838;50.676;7.838;2023-02-21T10:33:54;98629.28;;;10.02;94.91
54936;BME280;40838;50.676;7.838;2023-02-21T10:36:24;98620.22;;;10.13;94.97
54936;BME280;40838;50.676;7.838;2023-02-21T10:38:57;98623.13;;;9.76;97.39
54936;BME280;40838;50.676;7.838;2023-02-21T10:41:27;98627.69;;;10.42;95.08
54936;BME280;40838;50.676;7.838;2023-02-21T10:43:59;98626.47;;;11.04;91.42
54936;BME280;40838;50.676;7.838;2023-02-21T10:46:36;98630.09;;;10.07;96.81
54936;BME280;40838;50.676;7.838;2023-02-21T10:49:21;98630.94;;;11.74;89.87
54936;BME280;40838;50.676;7.838;2023-02-21T10:52:05;98635.09;;;10.60;94.48
54936;BME280;40838;50.676;7.838;2023-02-21T10:54:33;98626.22;;;11.06;92.33
54936;BME280;40838;50.676;7.838;2023-02-21T10:57:07;98627.66;;;10.52;96.61
54936;BME280;40838;50.676;7.838;2023-02-21T10:59:40;98633.88;;;8.33;100.00
54936;BME280;40838;50.676;7.838;2023-02-21T11:02:38;98632.34;;;8.80;100.00
54936;BME280;40838;50.676;7.838;2023-02-21T11:05:16;98618.53;;;9.46;100.00
54936;BME280;40838;50.676;7.838;2023-02-21T11:07:56;98619.31;;;9.36;100.00
54936;BME280;40838;50.676;7.838;2023-02-21T11:10:29;98615.31;;;9.38;100.00
54936;BME280;40838;50.676;7.838;2023-02-21T11:13:05;98614.91;;;10.39;99.87
54936;BME280;40838;50.676;7.838;2023-02-21T11:15:32;98618.63;;;9.03;100.00
54936;BME280;40838;50.676;7.838;2023-02-21T11:18:12;98608.72;;;10.79;98.80
54936;BME280;40838;50.676;7.838;2023-02-21T11:20:46;98609.91;;;11.17;94.74
54936;BME280;40838;50.676;7.838;2023-02-21T11:23:22;98603.59;;;12.50;86.11
54936;BME280;40838;50.676;7.838;2023-02-21T11:25:59;98597.00;;;12.43;88.61
54936;BME280;40838;50.676;7.838;2023-02-21T11:28:35;98591.84;;;15.15;76.57
54936;BME280;40838;50.676;7.838;2023-02-21T11:31:07;98599.66;;;12.43;86.16
54936;BME280;40838;50.676;7.838;2023-02-21T11:33:38;98597.63;;;11.16;93.34
54936;BME280;40838;50.676;7.838;2023-02-21T11:36:14;98588.31;;;13.85;80.10
54936;BME280;40838;50.676;7.838;2023-02-21T11:38:43;98586.41;;;14.18;78.26
54936;BME280;40838;50.676;7.838;2023-02-21T11:41:20;98575.03;;;15.23;73.41
54936;BME280;40838;50.676;7.838;2023-02-21T11:43:47;98565.97;;;15.91;67.94
54936;BME280;40838;50.676;7.838;2023-02-21T11:46:22;98569.25;;;16.33;67.61
54936;BME280;40838;50.676;7.838;2023-02-21T11:49:00;98567.31;;;15.58;74.63
54936;BME280;40838;50.676;7.838;2023-02-21T11:51:33;98559.94;;;14.16;80.31
54936;BME280;40838;50.676;7.838;2023-02-21T11:54:04;98562.78;;;14.94;75.76
54936;BME280;40838;50.676;7.838;2023-02-21T11:56:40;98558.22;;;12.74;86.09
54936;BME280;40838;50.676;7.838;2023-02-21T11:59:18;98551.53;;;14.37;76.79
54936;BME280;40838;50.676;7.838;2023-02-21T12:02:06;98547.84;;;14.88;76.80
54936;BME280;40838;50.676;7.838;2023-02-21T12:04:54;98544.91;;;12.69;85.04
54936;BME280;40838;50.676;7.838;2023-02-21T12:07:32;98532.91;;;13.99;80.36
54936;BME280;40838;50.676;7.838;2023-02-21T12:10:10;98538.88;;;14.10;81.95
54936;BME280;40838;50.676;7.838;2023-02-21T12:12:53;98539.25;;;12.47;87.14
54936;BME280;40838;50.676;7.838;2023-02-21T12:15:30;98541.28;;;12.31;86.42
54936;BME280;40838;50.676;7.838;2023-02-21T12:21:02;98523.66;;;13.02;85.54
54936;BME280;40838;50.676;7.838;2023-02-21T12:23:40;98512.16;;;12.34;87.24
54936;BME280;40838;50.676;7.838;2023-02-21T12:26:33;98514.09;;;11.65;92.82
54936;BME280;40838;50.676;7.838;2023-02-21T12:29:19;98505.44;;;11.50;91.10
54936;BME280;40838;50.676;7.838;2023-02-21T12:32:14;98495.78;;;12.41;86.99
54936;BME280;40838;50.676;7.838;2023-02-21T12:35:10;98480.81;;;13.78;80.48
54936;BME280;40838;50.676;7.838;2023-02-21T12:37:53;98482.03;;;14.27;82.98
54936;BME280;40838;50.676;7.838;2023-02-21T12:40:28;98478.84;;;13.32;84.15
54936;BME280;40838;50.676;7.838;2023-02-21T12:43:15;98466.91;;;13.43;86.16
54936;BME280;40838;50.676;7.838;2023-02-21T12:45:55;98467.00;;;12.81;84.43
54936;BME280;40838;50.676;7.838;2023-02-21T12:48:31;98467.72;;;12.87;84.57
54936;BME280;40838;50.676;7.838;2023-02-21T12:51:04;98462.03;;;12.93;87.27
54936;BME280;40838;50.676;7.838;2023-02-21T12:53:36;98462.16;;;13.73;84.59
54936;BME280;40838;50.676;7.838;2023-02-21T12:56:14;98461.59;;;13.89;83.65
54936;BME280;40838;50.676;7.838;2023-02-21T12:58:47;98455.84;;;13.96;82.99
54936;BME280;40838;50.676;7.838;2023-02-21T13:01:19;98463.94;;;13.25;85.38
54936;BME280;40838;50.676;7.838;2023-02-21T13:03:54;98456.16;;;13.10;86.88
54936;BME280;40838;50.676;7.838;2023-02-21T13:06:28;98453.78;;;12.47;88.73
54936;BME280;40838;50.676;7.838;2023-02-21T13:09:05;98442.97;;;13.98;84.65
54936;BME280;40838;50.676;7.838;2023-02-21T13:11:40;98444.84;;;13.32;85.15
54936;BME280;40838;50.676;7.838;2023-02-21T13:14:16;98442.75;;;13.62;85.30
54936;BME280;40838;50.676;7.838;2023-02-21T13:16:45;98442.47;;;14.88;81.24
54936;BME280;40838;50.676;7.838;2023-02-21T13:19:13;98443.72;;;13.85;81.93
54936;BME280;40838;50.676;7.838;2023-02-21T13:21:51;98432.13;;;14.03;82.32
54936;BME280;40838;50.676;7.838;2023-02-21T13:24:50;98439.16;;;13.85;84.36
54936;BME280;40838;50.676;7.838;2023-02-21T13:27:45;98429.44;;;14.03;83.35
54936;BME280;40838;50.676;7.838;2023-02-21T13:30:20;98425.53;;;13.68;84.39
54936;BME280;40838;50.676;7.838;2023-02-21T13:32:52;98416.47;;;13.50;86.23
54936;BME280;40838;50.676;7.838;2023-02-21T13:35:26;98423.19;;;13.15;87.18
54936;BME280;40838;50.676;7.838;2023-02-21T13:37:54;98404.84;;;14.15;83.85
54936;BME280;40838;50.676;7.838;2023-02-21T13:40:25;98406.63;;;14.20;84.66
54936;BME280;40838;50.676;7.838;2023-02-21T13:43:02;98406.66;;;13.92;83.93
54936;BME280;40838;50.676;7.838;2023-02-21T13:45:30;98396.38;;;14.49;81.68
54936;BME280;40838;50.676;7.838;2023-02-21T13:48:26;98394.53;;;14.36;82.34